createdAt,value
2018-07-24T00:00:59.382Z,13.50
2018-07-24T00:01:59.366Z,14.00
2018-07-24T00:02:59.355Z,13.20
2018-07-24T00:03:59.346Z,13.70
2018-07-24T00:04:59.399Z,14.10
2018-07-24T00:06:00.117Z,13.20
2018-07-24T00:06:59.313Z,14.00
2018-07-24T00:07:59.302Z,13.90
2018-07-24T00:08:59.294Z,13.90
2018-07-24T00:09:59.344Z,13.80
2018-07-24T00:10:59.306Z,13.30
2018-07-24T00:11:59.258Z,13.20
2018-07-24T00:12:59.246Z,13.90
2018-07-24T00:13:59.238Z,13.60
2018-07-24T00:14:59.285Z,12.60
2018-07-24T00:15:59.216Z,13.50
2018-07-24T00:16:59.208Z,13.00
2018-07-24T00:17:59.197Z,13.40
2018-07-24T00:18:59.183Z,13.30
2018-07-24T00:19:59.230Z,13.60
2018-07-24T00:20:59.161Z,14.30
2018-07-24T00:21:59.167Z,13.90
2018-07-24T00:22:59.139Z,13.40
2018-07-24T00:23:59.128Z,13.50
2018-07-24T00:24:59.182Z,13.80
2018-07-24T00:25:59.108Z,14.40
2018-07-24T00:26:59.616Z,14.20
2018-07-24T00:27:59.086Z,14.50
2018-07-24T00:28:59.077Z,14.00
2018-07-24T00:29:59.135Z,14.00
2018-07-24T00:30:59.052Z,13.50
2018-07-24T00:31:59.044Z,13.30
2018-07-24T00:32:59.031Z,13.20
2018-07-24T00:33:59.020Z,12.50
2018-07-24T00:34:59.069Z,13.50
2018-07-24T00:35:58.998Z,13.50
2018-07-24T00:36:58.990Z,13.00
2018-07-24T00:37:58.983Z,14.30
2018-07-24T00:38:58.966Z,13.70
2018-07-24T00:39:59.021Z,14.20
2018-07-24T00:40:58.945Z,14.40
2018-07-24T00:41:58.933Z,14.00
2018-07-24T00:42:58.922Z,14.00
2018-07-24T00:43:58.911Z,14.30
2018-07-24T00:44:58.968Z,13.70
2018-07-24T00:45:58.889Z,13.70
2018-07-24T00:46:58.879Z,12.00
2018-07-24T00:47:59.612Z,14.40
2018-07-24T00:48:58.856Z,14.40
2018-07-24T00:49:58.907Z,14.10
2018-07-24T00:50:58.834Z,13.90
2018-07-24T00:51:58.823Z,13.40
2018-07-24T00:52:58.814Z,13.40
2018-07-24T00:53:58.809Z,14.20
2018-07-24T00:54:58.856Z,13.70
2018-07-24T00:55:58.781Z,14.00
2018-07-24T00:56:58.773Z,12.40
2018-07-24T00:57:58.762Z,12.80
2018-07-24T00:58:58.752Z,13.20
2018-07-24T00:59:58.811Z,13.40
2018-07-24T01:00:58.729Z,12.40
2018-07-24T01:01:58.718Z,14.40
2018-07-24T01:02:58.706Z,13.90
2018-07-24T01:03:58.698Z,12.30
2018-07-24T01:04:58.746Z,13.10
2018-07-24T01:05:58.677Z,12.80
2018-07-24T01:06:58.670Z,12.80
2018-07-24T01:07:58.654Z,13.20
2018-07-24T01:08:59.615Z,12.90
2018-07-24T01:09:58.690Z,14.80
2018-07-24T01:10:58.621Z,12.90
2018-07-24T01:11:58.610Z,14.00
2018-07-24T01:12:58.599Z,13.00
2018-07-24T01:13:58.588Z,12.40
2018-07-24T01:14:58.638Z,13.00
2018-07-24T01:15:58.575Z,12.80
2018-07-24T01:16:58.558Z,12.20
2018-07-24T01:17:58.549Z,13.30
2018-07-24T01:18:58.539Z,13.20
2018-07-24T01:19:58.588Z,13.60
2018-07-24T01:20:58.522Z,12.60
2018-07-24T01:21:58.505Z,12.30
2018-07-24T01:22:58.495Z,13.30
2018-07-24T01:23:58.480Z,13.70
2018-07-24T01:24:58.530Z,12.70
2018-07-24T01:25:58.458Z,12.80
2018-07-24T01:26:58.452Z,13.40
2018-07-24T01:27:58.438Z,13.00
2018-07-24T01:28:58.431Z,13.20
2018-07-24T01:29:58.688Z,13.20
2018-07-24T01:30:58.406Z,12.70
2018-07-24T01:31:58.397Z,12.80
2018-07-24T01:32:58.386Z,12.60
2018-07-24T01:33:58.375Z,12.80
2018-07-24T01:34:58.422Z,12.40
2018-07-24T01:35:59.113Z,13.80
2018-07-24T01:36:58.342Z,13.20
2018-07-24T01:37:58.330Z,13.70
2018-07-24T01:38:58.324Z,13.20
2018-07-24T01:39:58.383Z,13.60
2018-07-24T01:40:58.300Z,13.20
2018-07-24T01:41:58.288Z,13.80
2018-07-24T01:42:58.275Z,13.20
2018-07-24T01:43:58.285Z,13.50
2018-07-24T01:44:58.261Z,13.10
2018-07-24T01:45:58.302Z,13.70
2018-07-24T01:46:58.237Z,13.30
2018-07-24T01:47:58.236Z,12.80
2018-07-24T01:48:58.211Z,12.60
2018-07-24T01:49:58.203Z,14.00
2018-07-24T01:50:58.679Z,13.40
2018-07-24T01:51:58.181Z,13.60
2018-07-24T01:52:58.169Z,14.10
2018-07-24T01:53:58.159Z,13.30
2018-07-24T01:54:58.147Z,13.40
2018-07-24T01:55:58.200Z,14.10
2018-07-24T01:56:58.125Z,13.40
2018-07-24T01:57:58.117Z,13.20
2018-07-24T01:58:58.103Z,12.50
2018-07-24T01:59:58.095Z,13.10
2018-07-24T02:00:58.142Z,13.00
2018-07-24T02:01:58.070Z,14.10
2018-07-24T02:02:58.059Z,14.80
2018-07-24T02:03:58.048Z,14.50
2018-07-24T02:04:58.042Z,14.20
2018-07-24T02:05:58.089Z,13.80
2018-07-24T02:06:58.039Z,15.20
2018-07-24T02:07:58.009Z,14.20
2018-07-24T02:08:57.996Z,14.00
2018-07-24T02:09:57.988Z,13.40
2018-07-24T02:10:58.040Z,13.40
2018-07-24T02:11:58.617Z,15.50
2018-07-24T02:12:57.953Z,14.70
2018-07-24T02:13:57.940Z,13.80
2018-07-24T02:14:57.932Z,14.60
2018-07-24T02:15:57.985Z,13.90
2018-07-24T02:16:57.916Z,14.00
2018-07-24T02:17:57.899Z,14.70
2018-07-24T02:18:57.886Z,13.70
2018-07-24T02:19:57.874Z,15.50
2018-07-24T02:20:57.927Z,15.00
2018-07-24T02:21:57.863Z,14.30
2018-07-24T02:22:57.844Z,15.10
2018-07-24T02:23:57.835Z,15.00
2018-07-24T02:24:57.824Z,15.30
2018-07-24T02:25:57.893Z,15.20
2018-07-24T02:26:57.802Z,13.40
2018-07-24T02:27:57.793Z,13.50
2018-07-24T02:28:57.780Z,15.20
2018-07-24T02:29:57.766Z,15.20
2018-07-24T02:30:57.817Z,14.50
2018-07-24T02:31:57.813Z,14.60
2018-07-24T02:32:58.611Z,14.50
2018-07-24T02:33:57.723Z,14.50
2018-07-24T02:34:57.717Z,16.40
2018-07-24T02:35:57.767Z,13.90
2018-07-24T02:36:57.692Z,16.20
2018-07-24T02:37:57.684Z,16.10
2018-07-24T02:38:57.672Z,16.20
2018-07-24T02:39:57.662Z,16.60
2018-07-24T02:40:57.711Z,15.70
2018-07-24T02:42:05.773Z,15.20
2018-07-24T02:43:05.149Z,13.90
2018-07-24T02:44:05.771Z,14.80
2018-07-24T02:45:05.684Z,15.40
2018-07-24T02:46:05.755Z,14.70
2018-07-24T02:46:57.584Z,16.20
2018-07-24T02:47:57.579Z,13.80
2018-07-24T02:48:57.564Z,15.00
2018-07-24T02:50:05.708Z,13.80
2018-07-24T02:51:05.684Z,14.60
2018-07-24T02:52:05.628Z,13.70
2018-07-24T02:53:06.568Z,15.00
2018-07-24T02:54:05.036Z,14.00
2018-07-24T02:55:05.646Z,14.80
2018-07-24T02:55:57.554Z,16.20
2018-07-24T02:56:57.483Z,17.00
2018-07-24T02:57:57.468Z,16.30
2018-07-24T02:58:57.458Z,16.70
2018-07-24T02:59:57.443Z,14.40
2018-07-24T03:00:57.504Z,15.40
2018-07-24T03:01:57.423Z,15.90
2018-07-24T03:02:57.409Z,14.80
2018-07-24T03:03:57.429Z,15.20
2018-07-24T03:04:57.391Z,15.10
2018-07-24T03:05:57.447Z,14.50
2018-07-24T03:06:57.368Z,14.60
2018-07-24T03:07:57.368Z,15.50
2018-07-24T03:08:57.346Z,13.80
2018-07-24T03:09:57.335Z,14.70
2018-07-24T03:10:57.385Z,15.80
2018-07-24T03:11:57.313Z,15.10
2018-07-24T03:12:57.302Z,13.80
2018-07-24T03:13:57.298Z,15.20
2018-07-24T03:14:57.279Z,14.60
2018-07-24T03:15:57.541Z,16.20
2018-07-24T03:16:57.260Z,15.20
2018-07-24T03:17:57.250Z,16.80
2018-07-24T03:18:57.238Z,16.10
2018-07-24T03:19:57.238Z,15.60
2018-07-24T03:20:57.282Z,15.30
2018-07-24T03:21:57.207Z,15.40
2018-07-24T03:22:57.200Z,15.50
2018-07-24T03:23:57.199Z,16.10
2018-07-24T03:24:57.173Z,16.00
2018-07-24T03:25:57.238Z,14.80
2018-07-24T03:26:57.152Z,14.80
2018-07-24T03:27:57.141Z,15.90
2018-07-24T03:28:57.130Z,17.10
2018-07-24T03:29:57.122Z,16.10
2018-07-24T03:30:57.113Z,16.20
2018-07-24T03:31:57.169Z,18.40
2018-07-24T03:32:57.091Z,18.10
2018-07-24T03:33:57.078Z,18.20
2018-07-24T03:34:57.066Z,15.70
2018-07-24T03:35:57.057Z,15.30
2018-07-24T03:36:58.036Z,14.20
2018-07-24T03:37:57.050Z,15.50
2018-07-24T03:38:57.026Z,14.60
2018-07-24T03:39:57.012Z,16.60
2018-07-24T03:40:57.000Z,15.20
2018-07-24T03:41:57.056Z,15.30
2018-07-24T03:42:56.982Z,15.20
2018-07-24T03:43:56.970Z,15.70
2018-07-24T03:44:56.968Z,13.10
2018-07-24T03:45:56.961Z,15.00
2018-07-24T03:46:56.998Z,14.40
2018-07-24T03:47:56.926Z,13.40
2018-07-24T03:48:56.919Z,14.60
2018-07-24T03:49:56.922Z,14.60
2018-07-24T03:50:56.896Z,15.10
2018-07-24T03:51:56.948Z,16.10
2018-07-24T03:52:56.873Z,16.80
2018-07-24T03:53:56.862Z,15.30
2018-07-24T03:54:56.850Z,13.20
2018-07-24T03:55:56.839Z,14.10
2018-07-24T03:56:56.890Z,14.50
2018-07-24T03:57:57.471Z,15.40
2018-07-24T03:58:56.806Z,18.40
2018-07-24T03:59:56.809Z,15.20
2018-07-24T04:00:56.785Z,16.40
2018-07-24T04:01:56.840Z,15.30
2018-07-24T04:02:56.764Z,15.60
2018-07-24T04:03:56.754Z,16.20
2018-07-24T04:04:56.740Z,18.30
2018-07-24T04:05:56.734Z,17.90
2018-07-24T04:06:56.787Z,18.10
2018-07-24T04:07:56.713Z,17.50
2018-07-24T04:08:56.699Z,16.60
2018-07-24T04:09:56.694Z,18.10
2018-07-24T04:10:56.679Z,16.90
2018-07-24T04:11:56.737Z,18.70
2018-07-24T04:12:56.657Z,17.70
2018-07-24T04:13:56.649Z,16.00
2018-07-24T04:14:56.637Z,16.70
2018-07-24T04:15:56.624Z,17.90
2018-07-24T04:16:56.679Z,17.70
2018-07-24T04:17:56.603Z,17.70
2018-07-24T04:18:57.463Z,15.90
2018-07-24T04:19:56.582Z,15.40
2018-07-24T04:20:56.568Z,15.10
2018-07-24T04:21:56.624Z,18.20
2018-07-24T04:22:56.556Z,17.80
2018-07-24T04:23:56.538Z,17.50
2018-07-24T04:24:56.529Z,17.20
2018-07-24T04:25:56.519Z,17.60
2018-07-24T04:26:56.574Z,17.60
2018-07-24T04:27:56.498Z,16.90
2018-07-24T04:28:56.485Z,17.80
2018-07-24T04:29:56.475Z,16.10
2018-07-24T04:30:56.486Z,17.70
2018-07-24T04:31:56.518Z,17.60
2018-07-24T04:32:56.441Z,18.40
2018-07-24T04:33:56.433Z,16.60
2018-07-24T04:34:56.419Z,16.90
2018-07-24T04:35:56.413Z,16.00
2018-07-24T04:36:56.464Z,17.90
2018-07-24T04:37:56.388Z,17.90
2018-07-24T04:38:56.375Z,16.70
2018-07-24T04:39:57.053Z,14.60
2018-07-24T04:40:56.366Z,13.50
2018-07-24T04:41:56.406Z,16.70
2018-07-24T04:42:56.331Z,17.90
2018-07-24T04:43:56.332Z,16.60
2018-07-24T04:44:56.314Z,14.70
2018-07-24T04:45:56.308Z,14.80
2018-07-24T04:46:56.374Z,15.10
2018-07-24T04:47:56.278Z,17.00
2018-07-24T04:48:56.270Z,15.10
2018-07-24T04:49:56.253Z,16.50
2018-07-24T04:50:56.245Z,17.30
2018-07-24T04:51:56.306Z,15.40
2018-07-24T04:52:56.225Z,15.40
2018-07-24T04:53:56.273Z,15.30
2018-07-24T04:54:56.262Z,15.00
2018-07-24T04:55:56.228Z,13.60
2018-07-24T04:56:56.245Z,15.40
2018-07-24T04:57:56.189Z,15.40
2018-07-24T04:58:56.163Z,15.20
2018-07-24T04:59:56.151Z,16.10
2018-07-24T05:00:56.958Z,14.80
2018-07-24T05:01:56.203Z,15.10
2018-07-24T05:02:57.021Z,15.00
2018-07-24T05:03:56.110Z,13.70
2018-07-24T05:04:56.095Z,17.20
2018-07-24T05:05:56.084Z,15.40
2018-07-24T05:06:56.182Z,14.40
2018-07-24T05:07:56.128Z,17.10
2018-07-24T05:08:56.055Z,14.70
2018-07-24T05:09:56.057Z,15.20
2018-07-24T05:10:56.035Z,15.20
2018-07-24T05:11:56.022Z,15.40
2018-07-24T05:12:56.076Z,17.30
2018-07-24T05:13:56.015Z,16.30
2018-07-24T05:14:55.984Z,15.50
2018-07-24T05:16:09.511Z,13.80
2018-07-24T05:16:56.051Z,16.00
2018-07-24T05:17:56.124Z,14.70
2018-07-24T05:18:55.953Z,16.80
2018-07-24T05:19:55.938Z,15.30
2018-07-24T05:20:55.927Z,14.60
2018-07-24T05:21:55.913Z,15.60
2018-07-24T05:22:55.971Z,17.10
2018-07-24T05:23:55.894Z,15.40
2018-07-24T05:24:55.886Z,15.60
2018-07-24T05:25:55.902Z,16.80
2018-07-24T05:26:55.892Z,15.60
2018-07-24T05:27:55.918Z,15.30
2018-07-24T05:28:55.838Z,13.50
2018-07-24T05:29:55.827Z,15.10
2018-07-24T05:30:55.824Z,14.00
2018-07-24T05:31:55.803Z,17.50
2018-07-24T05:32:55.860Z,15.90
2018-07-24T05:33:55.797Z,17.00
2018-07-24T05:34:55.775Z,15.60
2018-07-24T05:35:55.763Z,16.30
2018-07-24T05:36:56.492Z,17.70
2018-07-24T05:37:55.808Z,16.90
2018-07-24T05:38:55.736Z,17.10
2018-07-24T05:39:55.722Z,16.20
2018-07-24T05:40:55.710Z,14.70
2018-07-24T05:41:55.700Z,17.40
2018-07-24T05:42:55.795Z,16.30
2018-07-24T05:43:55.678Z,15.80
2018-07-24T05:45:03.868Z,15.20
2018-07-24T05:46:03.852Z,15.10
2018-07-24T05:47:03.865Z,14.20
2018-07-24T05:48:03.844Z,15.60
2018-07-24T05:49:03.957Z,14.90
2018-07-24T05:50:03.151Z,15.10
2018-07-24T05:50:55.621Z,13.40
2018-07-24T05:51:55.590Z,14.20
2018-07-24T05:52:55.780Z,14.60
2018-07-24T05:53:55.570Z,14.60
2018-07-24T05:54:56.203Z,14.40
2018-07-24T05:55:55.548Z,15.00
2018-07-24T05:56:55.540Z,16.50
2018-07-24T05:57:55.784Z,14.20
2018-07-24T05:58:55.520Z,14.00
2018-07-24T05:59:55.505Z,13.20
2018-07-24T06:00:55.496Z,16.60
2018-07-24T06:01:55.525Z,15.80
2018-07-24T06:02:55.540Z,13.10
2018-07-24T06:03:55.462Z,13.80
2018-07-24T06:04:55.457Z,14.70
2018-07-24T06:05:55.437Z,13.60
2018-07-24T06:06:55.432Z,13.80
2018-07-24T06:07:55.488Z,15.30
2018-07-24T06:08:55.406Z,16.10
2018-07-24T06:09:55.395Z,13.50
2018-07-24T06:10:56.206Z,14.50
2018-07-24T06:11:55.374Z,14.50
2018-07-24T06:12:55.432Z,15.10
2018-07-24T06:13:55.367Z,13.20
2018-07-24T06:14:55.343Z,13.90
2018-07-24T06:15:55.329Z,15.20
2018-07-24T06:16:55.366Z,15.20
2018-07-24T06:17:55.380Z,14.30
2018-07-24T06:19:04.049Z,14.20
2018-07-24T06:20:03.456Z,15.30
2018-07-24T06:22:06.717Z,16.70
2018-07-24T06:26:43.015Z,15.90
2018-07-24T06:27:51.142Z,15.00
2018-07-24T06:28:50.460Z,15.90
2018-07-24T06:29:50.998Z,15.90
2018-07-24T06:30:50.963Z,14.10
2018-07-24T06:31:51.083Z,13.60
2018-07-24T06:32:51.098Z,15.20
2018-07-24T06:33:51.012Z,14.90
2018-07-24T06:34:50.930Z,15.20
2018-07-24T06:35:51.056Z,14.50
2018-07-24T06:36:50.902Z,15.00
2018-07-24T06:37:42.776Z,14.50
2018-07-24T06:38:42.953Z,14.50
2018-07-24T06:39:42.765Z,14.00
2018-07-24T06:40:50.892Z,13.40
2018-07-24T06:42:53.668Z,15.80
2018-07-24T06:43:53.591Z,16.30
2018-07-24T06:45:06.599Z,15.60
2018-07-24T06:46:07.081Z,13.80
2018-07-24T06:47:01.151Z,15.10
2018-07-24T06:48:01.180Z,13.70
2018-07-24T06:49:02.100Z,14.60
2018-07-24T06:50:01.283Z,14.40
2018-07-24T06:51:01.633Z,12.50
2018-07-24T06:52:02.225Z,13.80
2018-07-24T06:53:03.640Z,12.90
2018-07-24T06:54:01.104Z,12.00
2018-07-24T06:55:00.945Z,12.60
2018-07-24T06:56:00.940Z,12.10
2018-07-24T06:57:00.959Z,12.80
2018-07-24T06:58:01.146Z,12.50
2018-07-24T06:59:01.618Z,12.80
2018-07-24T07:00:01.503Z,14.40
2018-07-24T07:01:01.917Z,13.50
2018-07-24T07:02:01.553Z,13.50
2018-07-24T07:03:01.588Z,12.90
2018-07-24T07:03:53.311Z,13.80
2018-07-24T07:04:53.317Z,12.00
2018-07-24T07:05:53.292Z,11.80
2018-07-24T07:06:53.285Z,12.10
2018-07-24T07:07:53.272Z,12.60
2018-07-24T07:08:53.322Z,12.40
2018-07-24T07:09:53.262Z,12.70
2018-07-24T07:10:53.241Z,12.80
2018-07-24T07:11:53.278Z,12.50
2018-07-24T07:12:53.219Z,11.80
2018-07-24T07:13:53.277Z,11.70
2018-07-24T07:14:53.224Z,12.70
2018-07-24T07:15:53.225Z,13.30
2018-07-24T07:16:53.180Z,12.80
2018-07-24T07:17:53.169Z,12.70
2018-07-24T07:18:53.230Z,12.80
2018-07-24T07:19:53.825Z,12.30
2018-07-24T07:20:53.138Z,12.90
2018-07-24T07:21:53.130Z,12.40
2018-07-24T07:22:53.126Z,13.20
2018-07-24T07:24:02.303Z,13.10
2018-07-24T07:24:53.099Z,13.50
2018-07-24T07:25:53.102Z,13.40
2018-07-24T07:27:01.192Z,14.30
2018-07-24T07:27:53.098Z,13.10
2018-07-24T07:28:53.206Z,14.00
2018-07-24T07:29:53.055Z,13.70
2018-07-24T07:30:53.112Z,13.90
2018-07-24T07:31:53.348Z,13.70
2018-07-24T07:32:53.427Z,14.10
2018-07-24T07:33:53.776Z,14.30
2018-07-24T07:34:53.000Z,13.50
2018-07-24T07:35:53.021Z,14.10
2018-07-24T07:36:53.457Z,13.80
2018-07-24T07:37:53.284Z,13.60
2018-07-24T07:38:53.514Z,12.90
2018-07-24T07:39:52.957Z,13.80
2018-07-24T07:40:53.267Z,13.40
2018-07-24T07:41:52.935Z,12.80
2018-07-24T07:42:53.316Z,13.00
2018-07-24T07:43:53.821Z,12.60
2018-07-24T07:44:53.217Z,13.20
2018-07-24T07:45:53.156Z,14.10
2018-07-24T07:46:53.217Z,13.10
2018-07-24T07:47:53.876Z,13.80
2018-07-24T07:48:53.754Z,13.20
2018-07-24T07:49:53.184Z,12.80
2018-07-24T07:50:53.326Z,12.90
2018-07-24T07:51:53.451Z,13.40
2018-07-24T07:52:53.256Z,12.60
2018-07-24T07:53:52.956Z,13.10
2018-07-24T07:54:53.006Z,13.10
2018-07-24T07:55:52.984Z,13.00
2018-07-24T07:56:52.790Z,13.40
2018-07-24T07:57:52.779Z,12.80
2018-07-24T07:58:52.960Z,12.90
2018-07-24T07:59:52.760Z,12.30
2018-07-24T08:00:52.752Z,12.30
2018-07-24T08:01:52.752Z,12.50
2018-07-24T08:02:52.733Z,13.70
2018-07-24T08:03:52.787Z,13.20
2018-07-24T08:04:52.716Z,13.00
2018-07-24T08:05:52.742Z,13.80
2018-07-24T08:06:52.702Z,13.60
2018-07-24T08:07:52.688Z,13.50
2018-07-24T08:08:52.963Z,13.10
2018-07-24T08:09:53.021Z,13.70
2018-07-24T08:10:52.755Z,13.50
2018-07-24T08:11:52.659Z,12.80
2018-07-24T08:12:52.646Z,12.50
2018-07-24T08:13:52.709Z,12.60
2018-07-24T08:14:52.629Z,12.60
2018-07-24T08:15:52.620Z,12.60
2018-07-24T08:16:52.622Z,12.90
2018-07-24T08:17:52.606Z,13.10
2018-07-24T08:18:52.654Z,12.50
2018-07-24T08:19:52.593Z,12.60
2018-07-24T08:20:52.581Z,12.60
2018-07-24T08:21:53.936Z,12.40
2018-07-24T08:22:52.627Z,12.30
2018-07-24T08:23:52.621Z,12.70
2018-07-24T08:24:52.539Z,13.10
2018-07-24T08:25:52.531Z,13.20
2018-07-24T08:26:52.523Z,13.10
2018-07-24T08:27:52.554Z,13.40
2018-07-24T08:28:52.506Z,12.70
2018-07-24T08:29:52.964Z,13.20
2018-07-24T08:30:52.489Z,13.40
2018-07-24T08:31:52.479Z,14.70
2018-07-24T08:32:52.473Z,14.00
2018-07-24T08:33:52.462Z,13.30
2018-07-24T08:34:52.521Z,14.00
2018-07-24T08:35:52.447Z,13.80
2018-07-24T08:36:52.439Z,14.40
2018-07-24T08:37:52.438Z,14.00
2018-07-24T08:38:52.431Z,13.90
2018-07-24T08:39:52.475Z,15.20
2018-07-24T08:40:52.402Z,14.50
2018-07-24T08:41:52.396Z,15.00
2018-07-24T08:42:52.391Z,15.50
2018-07-24T08:43:52.385Z,15.00
2018-07-24T08:44:52.506Z,15.70
2018-07-24T08:45:52.364Z,15.70
2018-07-24T08:46:52.355Z,15.70
2018-07-24T08:47:52.346Z,15.20
2018-07-24T08:48:52.338Z,15.70
2018-07-24T08:49:52.396Z,16.60
2018-07-24T08:50:52.891Z,15.30
2018-07-24T08:51:52.316Z,16.20
2018-07-24T08:52:52.399Z,15.70
2018-07-24T08:53:52.641Z,15.70
2018-07-24T08:54:52.545Z,16.50
2018-07-24T08:55:52.282Z,16.20
2018-07-24T08:56:52.273Z,16.50
2018-07-24T08:57:52.265Z,16.60
2018-07-24T08:58:52.263Z,17.60
2018-07-24T08:59:52.320Z,17.10
2018-07-24T09:00:52.245Z,17.70
2018-07-24T09:01:52.239Z,17.70
2018-07-24T09:02:52.228Z,17.70
2018-07-24T09:03:52.292Z,18.10
2018-07-24T09:04:52.281Z,17.10
2018-07-24T09:05:52.206Z,17.30
2018-07-24T09:06:52.198Z,17.70
2018-07-24T09:07:52.192Z,18.30
2018-07-24T09:08:52.183Z,19.90
2018-07-24T09:09:52.244Z,19.50
2018-07-24T09:10:52.172Z,19.90
2018-07-24T09:11:52.887Z,20.10
2018-07-24T09:12:52.157Z,18.40
2018-07-24T09:13:52.144Z,17.90
2018-07-24T09:14:52.203Z,18.20
2018-07-24T09:15:52.130Z,18.30
2018-07-24T09:16:52.891Z,19.30
2018-07-24T09:17:52.116Z,19.10
2018-07-24T09:18:52.110Z,19.90
2018-07-24T09:19:52.164Z,19.70
2018-07-24T09:20:52.144Z,21.60
2018-07-24T09:21:52.088Z,20.40
2018-07-24T09:22:52.079Z,19.80
2018-07-24T09:23:52.074Z,21.20
2018-07-24T09:24:52.125Z,21.40
2018-07-24T09:25:52.058Z,22.50
2018-07-24T09:26:52.073Z,21.80
2018-07-24T09:27:52.051Z,22.00
2018-07-24T09:28:52.039Z,21.10
2018-07-24T09:29:52.095Z,20.70
2018-07-24T09:30:52.032Z,21.20
2018-07-24T09:31:52.017Z,21.80
2018-07-24T09:32:52.883Z,22.40
2018-07-24T09:33:52.002Z,22.60
2018-07-24T09:34:52.065Z,22.40
2018-07-24T09:35:51.988Z,22.80
2018-07-24T09:36:51.983Z,23.10
2018-07-24T09:37:51.981Z,23.50
2018-07-24T09:38:51.973Z,23.00
2018-07-24T09:39:52.023Z,23.10
2018-07-24T09:40:51.956Z,23.20
2018-07-24T09:41:51.948Z,23.80
2018-07-24T09:42:51.947Z,22.90
2018-07-24T09:43:51.934Z,23.60
2018-07-24T09:44:51.989Z,23.70
2018-07-24T09:45:51.932Z,23.20
2018-07-24T09:46:51.914Z,24.10
2018-07-24T09:47:51.906Z,25.10
2018-07-24T09:48:51.903Z,25.90
2018-07-24T09:49:51.961Z,26.30
2018-07-24T09:50:51.885Z,24.90
2018-07-24T09:51:51.880Z,24.70
2018-07-24T09:52:51.895Z,25.70
2018-07-24T09:53:52.372Z,26.30
2018-07-24T09:54:51.921Z,25.10
2018-07-24T09:55:51.856Z,26.00
2018-07-24T09:56:51.851Z,26.40
2018-07-24T09:57:51.849Z,26.50
2018-07-24T09:58:51.837Z,27.00
2018-07-24T09:59:51.889Z,26.60
2018-07-24T10:00:51.823Z,26.40
2018-07-24T10:01:51.814Z,28.20
2018-07-24T10:02:51.808Z,28.30
2018-07-24T10:03:51.805Z,29.00
2018-07-24T10:04:51.871Z,28.40
2018-07-24T10:05:51.797Z,29.10
2018-07-24T10:06:51.782Z,29.90
2018-07-24T10:07:51.780Z,30.60
2018-07-24T10:08:51.806Z,31.10
2018-07-24T10:09:51.837Z,30.90
2018-07-24T10:10:51.800Z,30.10
2018-07-24T10:11:51.765Z,30.30
2018-07-24T10:12:51.836Z,30.70
2018-07-24T10:13:51.783Z,31.30
2018-07-24T10:14:52.368Z,32.10
2018-07-24T10:15:51.797Z,31.90
2018-07-24T10:16:51.745Z,31.80
2018-07-24T10:17:51.720Z,32.50
2018-07-24T10:18:51.724Z,32.00
2018-07-24T10:19:51.713Z,32.40
2018-07-24T10:20:51.766Z,31.60
2018-07-24T10:21:51.693Z,32.50
2018-07-24T10:22:51.690Z,31.20
2018-07-24T10:23:51.693Z,32.00
2018-07-24T10:24:51.679Z,33.10
2018-07-24T10:25:51.735Z,33.40
2018-07-24T10:26:51.668Z,33.50
2018-07-24T10:27:51.657Z,33.70
2018-07-24T10:28:59.890Z,34.40
2018-07-24T10:30:00.350Z,35.80
2018-07-24T10:31:01.109Z,36.50
2018-07-24T10:31:59.170Z,36.30
2018-07-24T10:32:59.180Z,35.90
2018-07-24T10:33:59.142Z,36.50
2018-07-24T10:34:51.619Z,35.70
2018-07-24T10:35:51.679Z,36.60
2018-07-24T10:36:51.602Z,34.90
2018-07-24T10:37:51.604Z,35.50
2018-07-24T10:38:51.595Z,36.50
2018-07-24T10:39:51.587Z,37.70
2018-07-24T10:40:51.650Z,37.70
2018-07-24T10:41:51.573Z,37.70
2018-07-24T10:42:51.572Z,37.80
2018-07-24T10:43:51.567Z,38.30
2018-07-24T10:44:51.565Z,39.40
2018-07-24T10:45:51.616Z,40.30
2018-07-24T10:46:51.552Z,40.90
2018-07-24T10:47:51.544Z,40.60
2018-07-24T10:48:51.543Z,41.00
2018-07-24T10:49:51.535Z,40.60
2018-07-24T10:50:51.591Z,42.10
2018-07-24T10:51:51.521Z,42.00
2018-07-24T10:52:51.527Z,42.20
2018-07-24T10:53:51.544Z,42.20
2018-07-24T10:54:52.095Z,42.20
2018-07-24T10:55:51.574Z,42.50
2018-07-24T10:56:51.497Z,43.10
2018-07-24T10:57:51.491Z,44.30
2018-07-24T10:58:51.489Z,45.10
2018-07-24T10:59:51.477Z,45.80
2018-07-24T11:00:51.541Z,46.30
2018-07-24T11:01:51.476Z,48.10
2018-07-24T11:02:51.478Z,47.80
2018-07-24T11:03:51.457Z,48.60
2018-07-24T11:04:51.453Z,48.50
2018-07-24T11:05:51.514Z,49.30
2018-07-24T11:06:51.453Z,49.00
2018-07-24T11:07:51.439Z,48.00
2018-07-24T11:08:51.439Z,47.40
2018-07-24T11:09:51.427Z,46.40
2018-07-24T11:10:51.516Z,45.60
2018-07-24T11:11:51.432Z,46.00
2018-07-24T11:12:51.506Z,45.30
2018-07-24T11:13:51.408Z,45.60
2018-07-24T11:14:52.141Z,45.40
2018-07-24T11:15:51.621Z,46.00
2018-07-24T11:16:51.395Z,43.60
2018-07-24T11:17:51.387Z,41.40
2018-07-24T11:18:51.387Z,39.70
2018-07-24T11:19:51.378Z,39.60
2018-07-24T11:20:51.494Z,39.40
2018-07-24T11:21:51.430Z,39.80
2018-07-24T11:22:51.572Z,38.60
2018-07-24T11:23:51.355Z,38.70
2018-07-24T11:24:51.360Z,39.60
2018-07-24T11:25:51.412Z,39.00
2018-07-24T11:26:51.356Z,40.00
2018-07-24T11:27:51.335Z,38.90
2018-07-24T11:28:51.337Z,38.80
2018-07-24T11:29:51.325Z,39.40
2018-07-24T11:30:51.403Z,40.30
2018-07-24T11:31:51.327Z,41.10
2018-07-24T11:32:51.360Z,40.60
2018-07-24T11:33:51.308Z,40.50
2018-07-24T11:34:51.302Z,39.20
2018-07-24T11:35:51.444Z,39.90
2018-07-24T11:36:52.033Z,41.60
2018-07-24T11:37:51.287Z,40.20
2018-07-24T11:38:51.282Z,37.70
2018-07-24T11:39:51.281Z,39.10
2018-07-24T11:40:51.336Z,38.20
2018-07-24T11:41:51.265Z,38.40
2018-07-24T11:42:51.258Z,37.70
2018-07-24T11:43:51.252Z,38.30
2018-07-24T11:44:51.250Z,38.30
2018-07-24T11:45:51.302Z,37.30
2018-07-24T11:46:51.235Z,37.00
2018-07-24T11:47:51.239Z,36.10
2018-07-24T11:48:51.226Z,34.70
2018-07-24T11:49:51.229Z,34.30
2018-07-24T11:50:51.290Z,34.30
2018-07-24T11:51:51.259Z,32.70
2018-07-24T11:52:51.207Z,32.60
2018-07-24T11:53:51.199Z,34.00
2018-07-24T11:54:51.201Z,32.60
2018-07-24T11:55:51.192Z,32.00
2018-07-24T11:56:51.258Z,32.50
2018-07-24T11:57:52.032Z,32.30
2018-07-24T11:58:51.175Z,33.40
2018-07-24T11:59:51.171Z,34.00
2018-07-24T12:00:51.166Z,35.40
2018-07-24T12:01:51.237Z,35.10
2018-07-24T12:02:51.163Z,34.10
2018-07-24T12:03:51.152Z,34.60
2018-07-24T12:04:51.219Z,34.10
2018-07-24T12:05:51.163Z,34.00
2018-07-24T12:06:51.200Z,31.30
2018-07-24T12:07:51.204Z,31.00
2018-07-24T12:08:51.125Z,31.20
2018-07-24T12:09:51.124Z,30.80
2018-07-24T12:10:51.105Z,30.20
2018-07-24T12:11:51.166Z,29.20
2018-07-24T12:12:51.097Z,30.30
2018-07-24T12:13:51.088Z,29.40
2018-07-24T12:14:51.130Z,27.70
2018-07-24T12:15:51.082Z,28.20
2018-07-24T12:16:51.135Z,28.70
2018-07-24T12:17:51.066Z,27.80
2018-07-24T12:18:52.006Z,27.80
2018-07-24T12:19:51.067Z,28.00
2018-07-24T12:20:51.051Z,27.20
2018-07-24T12:21:51.109Z,27.00
2018-07-24T12:22:51.034Z,26.80
2018-07-24T12:23:51.026Z,26.60
2018-07-24T12:24:51.026Z,27.80
2018-07-24T12:25:51.025Z,27.60
2018-07-24T12:26:51.075Z,27.70
2018-07-24T12:27:51.003Z,26.70
2018-07-24T12:28:50.997Z,26.10
2018-07-24T12:29:50.994Z,26.20
2018-07-24T12:30:51.001Z,25.50
2018-07-24T12:31:51.046Z,25.60
2018-07-24T12:32:50.974Z,25.90
2018-07-24T12:33:50.976Z,27.00
2018-07-24T12:34:50.963Z,27.40
2018-07-24T12:35:51.029Z,26.20
2018-07-24T12:36:51.023Z,26.50
2018-07-24T12:37:50.943Z,26.80
2018-07-24T12:38:50.938Z,27.40
2018-07-24T12:39:51.562Z,28.30
2018-07-24T12:40:50.926Z,27.50
2018-07-24T12:41:50.989Z,27.90
2018-07-24T12:42:51.343Z,27.40
2018-07-24T12:43:50.908Z,27.40
2018-07-24T12:44:50.913Z,26.40
2018-07-24T12:45:50.905Z,26.60
2018-07-24T12:46:51.000Z,26.90
2018-07-24T12:47:50.885Z,27.10
2018-07-24T12:48:50.879Z,26.30
2018-07-24T12:49:50.876Z,26.60
2018-07-24T12:50:50.865Z,26.20
2018-07-24T12:51:50.928Z,25.50
2018-07-24T12:52:50.856Z,25.60
2018-07-24T12:53:50.847Z,25.10
2018-07-24T12:54:50.847Z,24.00
2018-07-24T12:55:50.841Z,23.70
2018-07-24T12:56:50.933Z,23.90
2018-07-24T12:57:50.846Z,24.50
2018-07-24T12:58:50.822Z,24.70